Terminal Aerodrome Forecast
Issued by NWS Paducah, KY

Home | Current Version | Previous Version | Text Only | Print | Product List | Glossary On
Versions: 1 2 3 4 5 6 7 8 9 10 11 12 13 14 15 16 17 18
632
FTUS43 KPAH 091610 AAB
TAFEVV
TAF AMD
KEVV 091610Z 0916/1012 30012G18KT 4SM -SHSN SCT015 OVC025
      TEMPO 0916/0920 2SM -SHSN OVC015=

USA.gov is the U.S. government's official web portal to all federal, state and local government web resources and services.